sensor_id;sensor_type;location;lat;lon;timestamp;P1;durP1;ratioP1;P2;durP2;ratioP2
17658;SDS011;8948;51.534;8.262;2023-04-03T00:02:26;2.63;;;1.53;;
17658;SDS011;8948;51.534;8.262;2023-04-03T00:07:26;5.43;;;1.90;;
17658;SDS011;8948;51.534;8.262;2023-04-03T00:12:27;5.70;;;2.20;;
17658;SDS011;8948;51.534;8.262;2023-04-03T00:17:28;5.00;;;1.70;;
17658;SDS011;8948;51.534;8.262;2023-04-03T00:22:28;3.17;;;2.00;;
17658;SDS011;8948;51.534;8.262;2023-04-03T00:27:29;6.63;;;1.80;;
17658;SDS011;8948;51.534;8.262;2023-04-03T00:32:30;5.90;;;1.70;;
17658;SDS011;8948;51.534;8.262;2023-04-03T00:37:30;5.47;;;2.00;;
17658;SDS011;8948;51.534;8.262;2023-04-03T00:42:31;9.57;;;2.87;;
17658;SDS011;8948;51.534;8.262;2023-04-03T00:47:32;3.33;;;2.03;;
17658;SDS011;8948;51.534;8.262;2023-04-03T00:52:32;8.10;;;2.20;;
17658;SDS011;8948;51.534;8.262;2023-04-03T00:57:33;6.00;;;2.27;;
17658;SDS011;8948;51.534;8.262;2023-04-03T01:02:35;6.93;;;1.93;;
17658;SDS011;8948;51.534;8.262;2023-04-03T01:07:36;5.90;;;1.93;;
17658;SDS011;8948;51.534;8.262;2023-04-03T01:12:38;5.63;;;2.23;;
17658;SDS011;8948;51.534;8.262;2023-04-03T01:22:56;5.53;;;2.00;;
17658;SDS011;8948;51.534;8.262;2023-04-03T01:28:08;7.70;;;2.20;;
17658;SDS011;8948;51.534;8.262;2023-04-03T01:33:10;3.27;;;2.10;;
17658;SDS011;8948;51.534;8.262;2023-04-03T01:38:11;6.27;;;2.40;;
17658;SDS011;8948;51.534;8.262;2023-04-03T01:43:12;6.07;;;2.10;;
17658;SDS011;8948;51.534;8.262;2023-04-03T01:48:12;5.13;;;1.97;;
17658;SDS011;8948;51.534;8.262;2023-04-03T01:53:13;6.17;;;2.40;;
17658;SDS011;8948;51.534;8.262;2023-04-03T01:58:14;12.83;;;2.30;;
17658;SDS011;8948;51.534;8.262;2023-04-03T02:03:14;5.77;;;2.03;;
17658;SDS011;8948;51.534;8.262;2023-04-03T02:08:15;5.87;;;1.83;;
17658;SDS011;8948;51.534;8.262;2023-04-03T02:13:18;4.33;;;2.07;;
17658;SDS011;8948;51.534;8.262;2023-04-03T02:18:19;3.97;;;2.10;;
17658;SDS011;8948;51.534;8.262;2023-04-03T02:23:19;6.33;;;2.27;;
17658;SDS011;8948;51.534;8.262;2023-04-03T02:28:20;4.90;;;1.83;;
17658;SDS011;8948;51.534;8.262;2023-04-03T02:33:20;11.30;;;2.67;;
17658;SDS011;8948;51.534;8.262;2023-04-03T02:38:21;5.13;;;1.90;;
17658;SDS011;8948;51.534;8.262;2023-04-03T02:43:22;6.97;;;1.97;;
17658;SDS011;8948;51.534;8.262;2023-04-03T02:48:23;8.30;;;2.03;;
17658;SDS011;8948;51.534;8.262;2023-04-03T02:53:24;6.57;;;2.23;;
17658;SDS011;8948;51.534;8.262;2023-04-03T02:58:24;4.20;;;2.47;;
17658;SDS011;8948;51.534;8.262;2023-04-03T03:03:25;6.93;;;2.23;;
17658;SDS011;8948;51.534;8.262;2023-04-03T03:08:26;3.67;;;2.30;;
17658;SDS011;8948;51.534;8.262;2023-04-03T03:13:26;5.40;;;1.80;;
17658;SDS011;8948;51.534;8.262;2023-04-03T03:18:27;7.63;;;2.27;;
17658;SDS011;8948;51.534;8.262;2023-04-03T03:23:29;6.57;;;2.23;;
17658;SDS011;8948;51.534;8.262;2023-04-03T03:28:32;6.00;;;1.90;;
17658;SDS011;8948;51.534;8.262;2023-04-03T03:33:32;7.13;;;2.00;;
17658;SDS011;8948;51.534;8.262;2023-04-03T03:38:33;5.47;;;2.20;;
17658;SDS011;8948;51.534;8.262;2023-04-03T03:43:34;3.97;;;2.07;;
17658;SDS011;8948;51.534;8.262;2023-04-03T03:48:34;9.23;;;2.27;;
17658;SDS011;8948;51.534;8.262;2023-04-03T03:53:35;7.77;;;2.03;;
17658;SDS011;8948;51.534;8.262;2023-04-03T03:58:36;7.30;;;3.33;;
17658;SDS011;8948;51.534;8.262;2023-04-03T04:03:36;4.80;;;2.20;;
17658;SDS011;8948;51.534;8.262;2023-04-03T04:08:37;7.83;;;2.80;;
17658;SDS011;8948;51.534;8.262;2023-04-03T04:13:37;4.10;;;2.10;;
17658;SDS011;8948;51.534;8.262;2023-04-03T04:18:38;9.10;;;2.80;;
17658;SDS011;8948;51.534;8.262;2023-04-03T04:23:39;7.13;;;2.33;;
17658;SDS011;8948;51.534;8.262;2023-04-03T04:28:39;5.87;;;1.90;;
17658;SDS011;8948;51.534;8.262;2023-04-03T04:33:40;8.00;;;2.60;;
17658;SDS011;8948;51.534;8.262;2023-04-03T04:38:41;6.23;;;2.37;;
17658;SDS011;8948;51.534;8.262;2023-04-03T04:43:42;11.67;;;2.83;;
17658;SDS011;8948;51.534;8.262;2023-04-03T04:48:42;9.60;;;2.30;;
17658;SDS011;8948;51.534;8.262;2023-04-03T04:53:43;8.43;;;2.23;;
17658;SDS011;8948;51.534;8.262;2023-04-03T04:58:44;4.53;;;2.50;;
17658;SDS011;8948;51.534;8.262;2023-04-03T05:03:44;8.80;;;2.40;;
17658;SDS011;8948;51.534;8.262;2023-04-03T05:08:45;8.77;;;2.77;;
17658;SDS011;8948;51.534;8.262;2023-04-03T05:13:46;8.57;;;2.50;;
17658;SDS011;8948;51.534;8.262;2023-04-03T05:18:47;13.43;;;2.80;;
17658;SDS011;8948;51.534;8.262;2023-04-03T05:23:47;6.83;;;2.83;;
17658;SDS011;8948;51.534;8.262;2023-04-03T05:28:48;8.37;;;2.87;;
17658;SDS011;8948;51.534;8.262;2023-04-03T05:33:48;6.27;;;2.67;;
17658;SDS011;8948;51.534;8.262;2023-04-03T05:38:49;8.43;;;2.80;;
17658;SDS011;8948;51.534;8.262;2023-04-03T05:43:50;6.27;;;2.60;;
17658;SDS011;8948;51.534;8.262;2023-04-03T05:48:50;9.23;;;2.90;;
17658;SDS011;8948;51.534;8.262;2023-04-03T05:54:00;11.43;;;2.50;;
17658;SDS011;8948;51.534;8.262;2023-04-03T05:59:08;12.27;;;3.23;;
17658;SDS011;8948;51.534;8.262;2023-04-03T06:04:09;9.10;;;2.70;;
17658;SDS011;8948;51.534;8.262;2023-04-03T06:09:10;6.33;;;2.43;;
17658;SDS011;8948;51.534;8.262;2023-04-03T06:14:11;8.30;;;2.57;;
17658;SDS011;8948;51.534;8.262;2023-04-03T06:19:12;7.93;;;2.83;;
17658;SDS011;8948;51.534;8.262;2023-04-03T06:24:16;8.40;;;2.87;;
17658;SDS011;8948;51.534;8.262;2023-04-03T06:29:18;10.23;;;2.67;;
17658;SDS011;8948;51.534;8.262;2023-04-03T06:34:19;9.43;;;2.77;;
17658;SDS011;8948;51.534;8.262;2023-04-03T06:39:21;6.63;;;2.43;;
17658;SDS011;8948;51.534;8.262;2023-04-03T06:44:24;9.87;;;2.67;;
17658;SDS011;8948;51.534;8.262;2023-04-03T06:49:25;9.43;;;2.93;;
17658;SDS011;8948;51.534;8.262;2023-04-03T06:54:26;9.13;;;2.97;;
17658;SDS011;8948;51.534;8.262;2023-04-03T06:59:26;6.80;;;2.50;;
17658;SDS011;8948;51.534;8.262;2023-04-03T07:04:27;9.43;;;2.40;;
17658;SDS011;8948;51.534;8.262;2023-04-03T07:09:27;7.30;;;2.30;;
17658;SDS011;8948;51.534;8.262;2023-04-03T07:14:28;7.63;;;2.50;;
17658;SDS011;8948;51.534;8.262;2023-04-03T07:19:29;7.83;;;2.47;;
17658;SDS011;8948;51.534;8.262;2023-04-03T07:24:29;5.80;;;2.57;;
17658;SDS011;8948;51.534;8.262;2023-04-03T07:29:30;6.20;;;2.20;;
17658;SDS011;8948;51.534;8.262;2023-04-03T07:34:31;5.40;;;2.30;;
17658;SDS011;8948;51.534;8.262;2023-04-03T07:39:32;7.77;;;2.10;;
17658;SDS011;8948;51.534;8.262;2023-04-03T07:44:33;13.60;;;2.30;;
17658;SDS011;8948;51.534;8.262;2023-04-03T07:49:33;11.13;;;1.83;;
17658;SDS011;8948;51.534;8.262;2023-04-03T07:54:37;5.50;;;2.20;;
17658;SDS011;8948;51.534;8.262;2023-04-03T07:59:38;5.77;;;1.97;;
17658;SDS011;8948;51.534;8.262;2023-04-03T08:04:40;6.53;;;2.50;;
17658;SDS011;8948;51.534;8.262;2023-04-03T08:09:41;7.30;;;2.43;;
17658;SDS011;8948;51.534;8.262;2023-04-03T08:14:42;10.53;;;2.33;;
17658;SDS011;8948;51.534;8.262;2023-04-03T08:19:42;18.43;;;3.30;;
17658;SDS011;8948;51.534;8.262;2023-04-03T08:24:43;4.33;;;2.00;;
17658;SDS011;8948;51.534;8.262;2023-04-03T08:29:44;8.23;;;2.30;;
17658;SDS011;8948;51.534;8.262;2023-04-03T08:34:44;7.27;;;1.90;;
17658;SDS011;8948;51.534;8.262;2023-04-03T08:39:46;7.17;;;2.20;;
17658;SDS011;8948;51.534;8.262;2023-04-03T08:44:51;8.03;;;1.70;;
17658;SDS011;8948;51.534;8.262;2023-04-03T08:50:17;6.60;;;2.03;;
17658;SDS011;8948;51.534;8.262;2023-04-03T08:55:29;4.40;;;1.50;;
17658;SDS011;8948;51.534;8.262;2023-04-03T09:11:24;3.20;;;1.40;;
17658;SDS011;8948;51.534;8.262;2023-04-03T09:21:57;4.83;;;1.70;;
17658;SDS011;8948;51.534;8.262;2023-04-03T09:27:18;11.73;;;1.93;;
17658;SDS011;8948;51.534;8.262;2023-04-03T09:32:29;3.57;;;1.50;;
17658;SDS011;8948;51.534;8.262;2023-04-03T09:42:38;3.33;;;1.50;;
17658;SDS011;8948;51.534;8.262;2023-04-03T09:47:41;3.37;;;1.60;;
17658;SDS011;8948;51.534;8.262;2023-04-03T09:52:42;5.13;;;1.37;;
17658;SDS011;8948;51.534;8.262;2023-04-03T09:57:51;6.13;;;1.53;;
17658;SDS011;8948;51.534;8.262;2023-04-03T10:02:56;5.07;;;1.70;;
17658;SDS011;8948;51.534;8.262;2023-04-03T10:08:13;6.83;;;1.70;;
17658;SDS011;8948;51.534;8.262;2023-04-03T10:13:23;3.70;;;1.50;;
17658;SDS011;8948;51.534;8.262;2023-04-03T10:23:42;4.33;;;1.60;;
17658;SDS011;8948;51.534;8.262;2023-04-03T10:39:27;4.03;;;1.93;;
17658;SDS011;8948;51.534;8.262;2023-04-03T10:55:55;2.87;;;1.47;;
17658;SDS011;8948;51.534;8.262;2023-04-03T11:01:06;3.67;;;1.57;;
17658;SDS011;8948;51.534;8.262;2023-04-03T11:06:17;6.07;;;1.40;;
17658;SDS011;8948;51.534;8.262;2023-04-03T11:11:20;4.23;;;1.43;;
17658;SDS011;8948;51.534;8.262;2023-04-03T11:16:30;8.33;;;1.60;;
17658;SDS011;8948;51.534;8.262;2023-04-03T11:21:37;3.17;;;1.53;;
17658;SDS011;8948;51.534;8.262;2023-04-03T11:26:58;3.43;;;1.40;;
17658;SDS011;8948;51.534;8.262;2023-04-03T11:42:42;2.87;;;1.60;;
17658;SDS011;8948;51.534;8.262;2023-04-03T11:47:47;4.17;;;1.60;;
17658;SDS011;8948;51.534;8.262;2023-04-03T11:52:55;4.73;;;1.90;;
17658;SDS011;8948;51.534;8.262;2023-04-03T12:02:58;2.37;;;1.40;;
17658;SDS011;8948;51.534;8.262;2023-04-03T12:13:26;3.73;;;1.47;;
17658;SDS011;8948;51.534;8.262;2023-04-03T12:18:31;7.03;;;1.70;;
17658;SDS011;8948;51.534;8.262;2023-04-03T12:29:10;3.03;;;1.30;;
17658;SDS011;8948;51.534;8.262;2023-04-03T12:55:30;2.90;;;1.60;;
17658;SDS011;8948;51.534;8.262;2023-04-03T13:00:32;4.17;;;1.63;;
17658;SDS011;8948;51.534;8.262;2023-04-03T13:05:35;3.43;;;1.63;;
17658;SDS011;8948;51.534;8.262;2023-04-03T13:16:07;7.28;;;1.70;;
17658;SDS011;8948;51.534;8.262;2023-04-03T13:21:14;5.88;;;1.80;;
17658;SDS011;8948;51.534;8.262;2023-04-03T13:26:17;5.63;;;1.70;;
17658;SDS011;8948;51.534;8.262;2023-04-03T13:31:22;2.47;;;1.38;;
17658;SDS011;8948;51.534;8.262;2023-04-03T13:36:30;7.20;;;1.60;;
17658;SDS011;8948;51.534;8.262;2023-04-03T13:41:34;7.10;;;1.77;;
17658;SDS011;8948;51.534;8.262;2023-04-03T13:46:36;4.50;;;1.80;;
17658;SDS011;8948;51.534;8.262;2023-04-03T13:51:37;3.73;;;1.40;;
17658;SDS011;8948;51.534;8.262;2023-04-03T13:56:39;3.13;;;1.50;;
17658;SDS011;8948;51.534;8.262;2023-04-03T14:01:46;5.53;;;1.40;;
17658;SDS011;8948;51.534;8.262;2023-04-03T14:06:50;5.93;;;1.95;;
17658;SDS011;8948;51.534;8.262;2023-04-03T14:11:53;3.83;;;1.80;;
17658;SDS011;8948;51.534;8.262;2023-04-03T14:16:56;3.15;;;1.55;;
17658;SDS011;8948;51.534;8.262;2023-04-03T14:22:00;4.40;;;1.67;;
17658;SDS011;8948;51.534;8.262;2023-04-03T14:27:13;5.38;;;1.77;;
17658;SDS011;8948;51.534;8.262;2023-04-03T14:32:18;3.20;;;1.67;;
17658;SDS011;8948;51.534;8.262;2023-04-03T14:37:22;6.55;;;2.08;;
17658;SDS011;8948;51.534;8.262;2023-04-03T14:42:28;3.35;;;1.67;;
17658;SDS011;8948;51.534;8.262;2023-04-03T14:47:31;4.90;;;1.80;;
17658;SDS011;8948;51.534;8.262;2023-04-03T14:52:33;4.82;;;1.55;;
17658;SDS011;8948;51.534;8.262;2023-04-03T14:57:35;3.47;;;1.67;;
17658;SDS011;8948;51.534;8.262;2023-04-03T15:02:38;6.93;;;1.58;;
17658;SDS011;8948;51.534;8.262;2023-04-03T15:07:40;3.55;;;1.65;;
17658;SDS011;8948;51.534;8.262;2023-04-03T15:12:42;3.08;;;1.80;;
17658;SDS011;8948;51.534;8.262;2023-04-03T15:17:44;4.50;;;1.30;;
17658;SDS011;8948;51.534;8.262;2023-04-03T15:22:45;6.70;;;2.10;;
17658;SDS011;8948;51.534;8.262;2023-04-03T15:27:45;5.57;;;2.03;;
17658;SDS011;8948;51.534;8.262;2023-04-03T15:32:46;6.32;;;1.77;;
17658;SDS011;8948;51.534;8.262;2023-04-03T15:37:47;4.47;;;1.90;;
17658;SDS011;8948;51.534;8.262;2023-04-03T15:42:48;5.55;;;1.70;;
17658;SDS011;8948;51.534;8.262;2023-04-03T15:47:48;4.35;;;1.55;;
17658;SDS011;8948;51.534;8.262;2023-04-03T15:52:52;4.40;;;1.80;;
17658;SDS011;8948;51.534;8.262;2023-04-03T15:57:58;5.40;;;1.73;;
17658;SDS011;8948;51.534;8.262;2023-04-03T16:03:00;8.30;;;1.75;;
17658;SDS011;8948;51.534;8.262;2023-04-03T16:08:04;3.10;;;1.52;;
17658;SDS011;8948;51.534;8.262;2023-04-03T16:13:07;3.45;;;1.73;;
17658;SDS011;8948;51.534;8.262;2023-04-03T16:18:08;3.50;;;1.48;;
17658;SDS011;8948;51.534;8.262;2023-04-03T16:23:09;1.83;;;1.42;;
17658;SDS011;8948;51.534;8.262;2023-04-03T16:28:12;4.35;;;1.55;;
17658;SDS011;8948;51.534;8.262;2023-04-03T16:33:13;4.25;;;1.67;;
17658;SDS011;8948;51.534;8.262;2023-04-03T16:38:14;4.70;;;1.65;;
17658;SDS011;8948;51.534;8.262;2023-04-03T16:43:15;3.20;;;2.03;;
17658;SDS011;8948;51.534;8.262;2023-04-03T16:48:16;6.10;;;1.95;;
17658;SDS011;8948;51.534;8.262;2023-04-03T16:53:17;3.40;;;1.50;;
17658;SDS011;8948;51.534;8.262;2023-04-03T16:58:17;3.72;;;1.58;;
17658;SDS011;8948;51.534;8.262;2023-04-03T17:03:18;5.80;;;2.23;;
17658;SDS011;8948;51.534;8.262;2023-04-03T17:08:19;4.50;;;1.80;;
17658;SDS011;8948;51.534;8.262;2023-04-03T17:13:20;3.50;;;1.90;;
17658;SDS011;8948;51.534;8.262;2023-04-03T17:18:20;4.57;;;1.60;;
17658;SDS011;8948;51.534;8.262;2023-04-03T17:23:21;4.20;;;1.37;;
17658;SDS011;8948;51.534;8.262;2023-04-03T17:28:22;3.00;;;1.67;;
17658;SDS011;8948;51.534;8.262;2023-04-03T17:33:28;8.63;;;2.17;;
17658;SDS011;8948;51.534;8.262;2023-04-03T17:38:32;5.30;;;2.07;;
17658;SDS011;8948;51.534;8.262;2023-04-03T17:43:33;3.17;;;1.83;;
17658;SDS011;8948;51.534;8.262;2023-04-03T17:48:35;3.63;;;1.93;;
17658;SDS011;8948;51.534;8.262;2023-04-03T17:53:37;2.87;;;1.60;;
17658;SDS011;8948;51.534;8.262;2023-04-03T17:58:38;4.53;;;1.77;;
17658;SDS011;8948;51.534;8.262;2023-04-03T18:03:39;6.70;;;2.10;;
17658;SDS011;8948;51.534;8.262;2023-04-03T18:09:14;3.53;;;1.80;;
17658;SDS011;8948;51.534;8.262;2023-04-03T18:14:08;5.90;;;1.90;;
17658;SDS011;8948;51.534;8.262;2023-04-03T18:19:09;6.50;;;1.93;;
17658;SDS011;8948;51.534;8.262;2023-04-03T18:24:12;2.80;;;1.67;;
17658;SDS011;8948;51.534;8.262;2023-04-03T18:29:14;5.93;;;1.83;;
17658;SDS011;8948;51.534;8.262;2023-04-03T18:34:15;7.67;;;2.20;;
17658;SDS011;8948;51.534;8.262;2023-04-03T18:39:15;7.93;;;2.37;;
17658;SDS011;8948;51.534;8.262;2023-04-03T18:44:18;6.60;;;2.60;;
17658;SDS011;8948;51.534;8.262;2023-04-03T18:49:21;5.07;;;2.37;;
17658;SDS011;8948;51.534;8.262;2023-04-03T18:54:22;4.40;;;2.37;;
17658;SDS011;8948;51.534;8.262;2023-04-03T18:59:22;6.17;;;2.17;;
17658;SDS011;8948;51.534;8.262;2023-04-03T19:04:24;4.37;;;1.77;;
17658;SDS011;8948;51.534;8.262;2023-04-03T19:09:26;3.47;;;2.13;;
17658;SDS011;8948;51.534;8.262;2023-04-03T19:14:26;5.13;;;1.93;;
17658;SDS011;8948;51.534;8.262;2023-04-03T19:19:27;6.57;;;2.10;;
17658;SDS011;8948;51.534;8.262;2023-04-03T19:24:27;5.47;;;1.77;;
17658;SDS011;8948;51.534;8.262;2023-04-03T19:29:28;3.77;;;1.90;;
17658;SDS011;8948;51.534;8.262;2023-04-03T19:34:29;5.17;;;2.07;;
17658;SDS011;8948;51.534;8.262;2023-04-03T19:39:30;5.80;;;1.90;;
17658;SDS011;8948;51.534;8.262;2023-04-03T19:44:34;4.20;;;2.00;;
17658;SDS011;8948;51.534;8.262;2023-04-03T19:49:35;6.93;;;2.33;;
17658;SDS011;8948;51.534;8.262;2023-04-03T19:54:36;3.10;;;2.10;;
17658;SDS011;8948;51.534;8.262;2023-04-03T19:59:37;6.63;;;2.10;;
17658;SDS011;8948;51.534;8.262;2023-04-03T20:04:37;5.27;;;2.10;;
17658;SDS011;8948;51.534;8.262;2023-04-03T20:09:38;4.73;;;2.20;;
17658;SDS011;8948;51.534;8.262;2023-04-03T20:14:39;3.83;;;1.87;;
17658;SDS011;8948;51.534;8.262;2023-04-03T20:19:39;6.77;;;2.30;;
17658;SDS011;8948;51.534;8.262;2023-04-03T20:24:40;5.80;;;2.47;;
17658;SDS011;8948;51.534;8.262;2023-04-03T20:29:41;5.97;;;2.10;;
17658;SDS011;8948;51.534;8.262;2023-04-03T20:34:42;5.43;;;2.30;;
17658;SDS011;8948;51.534;8.262;2023-04-03T20:39:43;3.90;;;1.87;;
17658;SDS011;8948;51.534;8.262;2023-04-03T20:44:44;9.43;;;2.37;;
17658;SDS011;8948;51.534;8.262;2023-04-03T20:49:45;5.53;;;1.90;;
17658;SDS011;8948;51.534;8.262;2023-04-03T20:54:45;9.33;;;2.57;;
17658;SDS011;8948;51.534;8.262;2023-04-03T20:59:46;6.03;;;2.60;;
17658;SDS011;8948;51.534;8.262;2023-04-03T21:04:49;3.87;;;2.47;;
17658;SDS011;8948;51.534;8.262;2023-04-03T21:20:50;6.77;;;2.97;;
17658;SDS011;8948;51.534;8.262;2023-04-03T21:25:51;6.03;;;2.40;;
17658;SDS011;8948;51.534;8.262;2023-04-03T21:30:51;6.20;;;2.43;;
17658;SDS011;8948;51.534;8.262;2023-04-03T21:35:51;9.17;;;2.70;;
17658;SDS011;8948;51.534;8.262;2023-04-03T21:40:56;7.27;;;2.40;;
17658;SDS011;8948;51.534;8.262;2023-04-03T21:45:57;8.87;;;2.37;;
17658;SDS011;8948;51.534;8.262;2023-04-03T21:51:02;3.10;;;2.40;;
17658;SDS011;8948;51.534;8.262;2023-04-03T21:56:04;4.67;;;2.47;;
17658;SDS011;8948;51.534;8.262;2023-04-03T22:01:12;5.60;;;2.10;;
17658;SDS011;8948;51.534;8.262;2023-04-03T22:06:14;4.07;;;2.43;;
17658;SDS011;8948;51.534;8.262;2023-04-03T22:11:15;2.90;;;2.03;;
17658;SDS011;8948;51.534;8.262;2023-04-03T22:16:16;5.60;;;2.80;;
17658;SDS011;8948;51.534;8.262;2023-04-03T22:21:17;7.10;;;2.50;;
17658;SDS011;8948;51.534;8.262;2023-04-03T22:26:17;4.97;;;2.43;;
17658;SDS011;8948;51.534;8.262;2023-04-03T22:31:18;5.63;;;2.57;;
17658;SDS011;8948;51.534;8.262;2023-04-03T22:36:19;5.63;;;2.30;;
17658;SDS011;8948;51.534;8.262;2023-04-03T22:41:20;6.40;;;2.50;;
17658;SDS011;8948;51.534;8.262;2023-04-03T22:46:21;4.90;;;2.40;;
17658;SDS011;8948;51.534;8.262;2023-04-03T22:51:21;9.17;;;2.90;;
17658;SDS011;8948;51.534;8.262;2023-04-03T22:56:22;5.07;;;2.50;;
17658;SDS011;8948;51.534;8.262;2023-04-03T23:01:22;4.27;;;2.40;;
17658;SDS011;8948;51.534;8.262;2023-04-03T23:06:24;5.23;;;2.10;;
17658;SDS011;8948;51.534;8.262;2023-04-03T23:11:25;5.77;;;2.67;;
17658;SDS011;8948;51.534;8.262;2023-04-03T23:16:26;4.13;;;2.40;;
17658;SDS011;8948;51.534;8.262;2023-04-03T23:21:26;3.40;;;2.30;;
17658;SDS011;8948;51.534;8.262;2023-04-03T23:26:27;4.60;;;2.40;;
17658;SDS011;8948;51.534;8.262;2023-04-03T23:31:28;3.90;;;2.40;;
17658;SDS011;8948;51.534;8.262;2023-04-03T23:36:28;4.20;;;2.50;;
17658;SDS011;8948;51.534;8.262;2023-04-03T23:41:29;5.83;;;2.40;;
17658;SDS011;8948;51.534;8.262;2023-04-03T23:46:29;6.03;;;2.80;;
17658;SDS011;8948;51.534;8.262;2023-04-03T23:51:30;5.77;;;2.83;;
17658;SDS011;8948;51.534;8.262;2023-04-03T23:56:30;3.80;;;2.47;;
